Time;durP1;ratioP1;P1;durP2;ratioP2;P2;SDS_P1;SDS_P2;PMS_P1;PMS_P2;Temp;Humidity;BMP_temperature;BMP_pressure;BME280_temperature;BME280_humidity;BME280_pressure;Samples;Min_cycle;Max_cycle;Signal;HPM_P1;HPM_P2
2021/05/29 00:00:39;;;;;;;14.68;10.00;;;13.60;99.90;;;;;;5011228;28;20101;-61
2021/05/29 00:03:05;;;;;;;15.10;9.52;;;13.50;99.90;;;;;;5011508;28;20034;-61
2021/05/29 00:05:30;;;;;;;14.48;9.27;;;13.40;99.90;;;;;;5010983;28;20113;-61
2021/05/29 00:07:56;;;;;;;13.73;8.98;;;13.40;99.90;;;;;;5011148;28;20034;-61
2021/05/29 00:10:22;;;;;;;13.10;8.85;;;13.40;99.90;;;;;;5010106;28;20557;-61
2021/05/29 00:12:47;;;;;;;11.68;8.52;;;13.30;99.90;;;;;;5011274;28;20033;-61
2021/05/29 00:15:13;;;;;;;11.63;8.85;;;13.30;99.90;;;;;;5011343;28;20530;-61
2021/05/29 00:17:38;;;;;;;12.70;9.07;;;13.40;99.90;;;;;;5011130;28;20026;-61
2021/05/29 00:20:05;;;;;;;12.45;9.38;;;13.40;99.90;;;;;;5010865;28;20057;-61
2021/05/29 00:22:30;;;;;;;11.55;9.15;;;13.50;99.90;;;;;;5011161;28;20034;-61
2021/05/29 00:24:56;;;;;;;13.57;9.63;;;13.60;99.90;;;;;;5026200;28;20040;-61
2021/05/29 00:27:21;;;;;;;19.15;9.23;;;13.50;99.90;;;;;;5011185;28;20040;-61
2021/05/29 00:29:47;;;;;;;12.63;9.50;;;13.40;99.90;;;;;;5026073;28;20514;-61
2021/05/29 00:32:13;;;;;;;13.52;9.50;;;13.50;99.90;;;;;;5026243;28;20018;-61
2021/05/29 00:34:38;;;;;;;13.93;9.27;;;13.40;99.90;;;;;;5011045;28;20450;-60
2021/05/29 00:37:04;;;;;;;12.63;9.45;;;13.30;99.90;;;;;;5025959;28;20046;-60
2021/05/29 00:39:29;;;;;;;14.02;9.13;;;13.20;99.90;;;;;;5011871;28;20025;-60
2021/05/29 00:41:55;;;;;;;14.65;9.85;;;13.20;99.90;;;;;;5029904;28;20033;-60
2021/05/29 00:44:20;;;;;;;13.10;9.45;;;13.20;99.90;;;;;;5029986;28;20096;-60
2021/05/29 00:46:46;;;;;;;12.50;9.30;;;13.10;99.90;;;;;;5014540;28;20034;-60
2021/05/29 00:49:12;;;;;;;12.30;8.50;;;13.20;99.90;;;;;;5029858;28;20032;-60
2021/05/29 00:51:37;;;;;;;14.27;9.20;;;13.20;99.90;;;;;;5014545;28;20034;-60
2021/05/29 00:54:05;;;;;;;13.15;9.50;;;13.20;99.90;;;;;;5014557;28;20466;-60
2021/05/29 00:56:30;;;;;;;13.80;9.18;;;13.10;99.90;;;;;;5014626;28;20022;-60
2021/05/29 00:58:56;;;;;;;12.48;8.73;;;13.10;99.90;;;;;;5014355;28;20072;-60
2021/05/29 01:01:22;;;;;;;15.18;9.20;;;13.20;99.90;;;;;;5013610;28;20026;-61
2021/05/29 01:03:47;;;;;;;14.02;9.60;;;13.20;99.90;;;;;;5014219;28;20025;-61
2021/05/29 01:06:13;;;;;;;11.70;8.98;;;13.10;99.90;;;;;;5013955;28;20026;-61
2021/05/29 01:08:39;;;;;;;12.88;9.05;;;13.10;99.90;;;;;;5014011;28;20056;-61
2021/05/29 01:11:07;;;;;;;14.10;8.82;;;13.20;99.90;;;;;;5014015;28;20034;-61
2021/05/29 01:13:34;;;;;;;13.20;8.90;;;13.10;99.90;;;;;;5029272;28;20029;-61
2021/05/29 01:16:06;;;;;;;13.38;8.93;;;13.10;99.90;;;;;;5029271;28;20026;-61
2021/05/29 01:18:32;;;;;;;12.23;8.52;;;13.20;99.90;;;;;;5029673;28;20446;-62
2021/05/29 01:21:00;;;;;;;10.57;8.50;;;13.20;99.90;;;;;;5014063;28;20057;-61
2021/05/29 01:23:26;;;;;;;12.85;8.98;;;13.10;99.90;;;;;;5014159;28;20025;-61
2021/05/29 01:25:51;;;;;;;11.93;8.73;;;13.20;99.90;;;;;;5029142;28;20026;-61
2021/05/29 01:28:26;;;;;;;12.70;8.75;;;13.20;99.90;;;;;;5029251;28;20030;-61
2021/05/29 01:30:56;;;;;;;13.20;8.95;;;13.20;99.90;;;;;;5013909;28;20425;-61
2021/05/29 01:33:24;;;;;;;15.27;9.52;;;13.50;99.90;;;;;;5028971;28;20026;-62
2021/05/29 01:35:52;;;;;;;18.00;9.57;;;13.40;99.90;;;;;;5028435;28;20022;-60
2021/05/29 01:38:20;;;;;;;15.43;9.13;;;13.40;99.90;;;;;;5013446;28;20506;-60
2021/05/29 01:40:46;;;;;;;11.75;9.30;;;13.40;99.90;;;;;;5012262;28;20152;-60
2021/05/29 01:43:13;;;;;;;12.25;9.45;;;13.30;99.90;;;;;;5013944;28;20100;-62
2021/05/29 01:45:40;;;;;;;13.10;9.75;;;13.40;99.90;;;;;;5013492;28;20594;-61
2021/05/29 01:48:07;;;;;;;14.13;9.93;;;13.30;99.90;;;;;;5028720;28;20033;-61
2021/05/29 01:50:34;;;;;;;15.35;9.85;;;13.30;99.90;;;;;;5012703;28;20439;-61
2021/05/29 01:53:04;;;;;;;15.65;11.25;;;13.30;99.90;;;;;;5013479;28;20458;-61
2021/05/29 01:55:32;;;;;;;13.73;10.10;;;13.30;99.90;;;;;;5013742;28;20034;-61
2021/05/29 01:57:59;;;;;;;15.95;10.55;;;13.20;99.90;;;;;;5028789;28;20042;-61
2021/05/29 02:00:28;;;;;;;16.95;10.75;;;13.30;99.90;;;;;;5013278;28;20026;-61
2021/05/29 02:02:55;;;;;;;16.90;10.82;;;13.20;99.90;;;;;;5028525;28;20030;-61
2021/05/29 02:05:29;;;;;;;19.38;11.48;;;13.20;99.90;;;;;;5012856;28;20096;-61
2021/05/29 02:07:59;;;;;;;15.77;10.45;;;13.30;99.90;;;;;;5013109;28;20030;-61
2021/05/29 02:10:26;;;;;;;14.40;10.30;;;13.30;99.90;;;;;;5013159;28;20022;-61
2021/05/29 02:12:55;;;;;;;15.60;10.85;;;13.20;99.90;;;;;;5012955;28;20398;-61
2021/05/29 02:15:27;;;;;;;17.42;10.27;;;13.30;99.90;;;;;;5013031;28;20254;-61
2021/05/29 02:17:55;;;;;;;14.48;10.57;;;13.30;99.90;;;;;;5013235;28;20033;-60
2021/05/29 02:20:45;;;;;;;15.07;11.02;;;13.30;99.90;;;;;;5028223;28;20037;-61
2021/05/29 02:23:12;;;;;;;16.85;9.77;;;13.30;99.90;;;;;;5011705;28;20037;-61
2021/05/29 02:25:39;;;;;;;15.40;9.68;;;13.30;99.90;;;;;;5013259;28;20501;-61
2021/05/29 02:28:05;;;;;;;15.18;9.68;;;13.30;99.90;;;;;;5012744;28;20037;-61
2021/05/29 02:30:32;;;;;;;14.57;10.25;;;13.20;99.90;;;;;;5027716;28;20028;-60
2021/05/29 02:32:58;;;;;;;12.68;10.15;;;13.20;99.90;;;;;;5012831;28;20018;-60
2021/05/29 02:35:24;;;;;;;16.30;9.93;;;13.10;99.90;;;;;;5012760;28;20410;-60
2021/05/29 02:37:49;;;;;;;14.40;10.35;;;13.10;99.90;;;;;;5012433;28;20041;-61
2021/05/29 02:40:15;;;;;;;15.35;10.95;;;13.00;99.90;;;;;;5013064;28;20025;-60
2021/05/29 02:42:41;;;;;;;13.93;10.57;;;13.00;99.90;;;;;;5027879;28;20470;-60
2021/05/29 02:45:08;;;;;;;17.20;11.20;;;13.00;99.90;;;;;;5012657;28;20025;-60
2021/05/29 02:47:34;;;;;;;13.15;10.05;;;13.00;99.90;;;;;;5027791;28;20079;-60
2021/05/29 02:50:00;;;;;;;11.75;9.70;;;12.90;99.90;;;;;;5012421;28;20429;-60
2021/05/29 02:52:27;;;;;;;14.40;10.45;;;12.90;99.90;;;;;;5027548;28;20032;-61
2021/05/29 02:54:52;;;;;;;12.50;10.77;;;12.80;99.90;;;;;;5012328;28;20093;-61
2021/05/29 02:57:18;;;;;;;14.25;10.38;;;12.70;99.90;;;;;;5012306;28;20097;-61
2021/05/29 02:59:44;;;;;;;16.95;11.90;;;12.60;99.90;;;;;;5012244;28;20026;-61
2021/05/29 03:02:10;;;;;;;15.27;10.40;;;12.50;99.90;;;;;;5011715;28;20382;-61
2021/05/29 03:04:36;;;;;;;13.55;10.27;;;12.50;99.90;;;;;;5012206;28;20018;-61
2021/05/29 03:07:03;;;;;;;13.27;10.40;;;12.50;99.90;;;;;;5011925;28;20029;-61
2021/05/29 03:09:29;;;;;;;14.77;10.27;;;12.60;99.90;;;;;;5012041;28;20379;-62
2021/05/29 03:11:55;;;;;;;14.60;10.15;;;12.60;99.90;;;;;;5027180;28;20041;-61
2021/05/29 03:14:21;;;;;;;13.68;9.52;;;12.50;99.90;;;;;;5012243;28;20437;-61
2021/05/29 03:16:49;;;;;;;13.27;11.25;;;12.40;99.90;;;;;;5012132;28;20028;-61
2021/05/29 03:19:15;;;;;;;14.05;10.57;;;12.40;99.90;;;;;;5027120;28;20026;-61
2021/05/29 03:21:41;;;;;;;14.15;10.95;;;12.50;99.90;;;;;;5027226;28;20026;-62
2021/05/29 03:24:07;;;;;;;15.82;10.43;;;12.40;99.90;;;;;;5011886;28;20493;-61
2021/05/29 03:26:33;;;;;;;13.60;10.52;;;12.40;99.90;;;;;;5011856;28;20037;-61
2021/05/29 03:29:00;;;;;;;14.18;10.13;;;12.30;99.90;;;;;;5012005;28;20109;-61
2021/05/29 03:31:26;;;;;;;12.77;10.05;;;12.30;99.90;;;;;;5011704;28;20029;-61
2021/05/29 03:33:52;;;;;;;13.82;10.73;;;12.30;99.90;;;;;;5011783;28;20393;-61
2021/05/29 03:36:18;;;;;;;12.40;9.80;;;12.20;99.90;;;;;;5011395;28;20035;-61
2021/05/29 03:38:44;;;;;;;15.48;11.15;;;12.20;99.90;;;;;;5011405;28;20046;-61
2021/05/29 03:41:09;;;;;;;14.35;10.65;;;12.30;99.90;;;;;;5011502;28;20037;-61
2021/05/29 03:43:35;;;;;;;13.40;10.85;;;12.30;99.90;;;;;;5011334;28;20112;-61
2021/05/29 03:46:01;;;;;;;13.48;10.90;;;12.20;99.90;;;;;;5011575;28;20057;-61
2021/05/29 03:48:27;;;;;;;16.33;10.82;;;12.20;99.90;;;;;;5011581;28;20033;-61
2021/05/29 03:50:52;;;;;;;15.85;10.20;;;12.10;99.90;;;;;;5011391;28;20490;-61
2021/05/29 03:53:18;;;;;;;12.65;10.43;;;12.10;99.90;;;;;;5011505;28;20022;-61
2021/05/29 03:55:44;;;;;;;15.77;10.55;;;12.00;99.90;;;;;;5026509;28;20092;-61
2021/05/29 03:58:09;;;;;;;14.88;10.50;;;12.00;99.90;;;;;;5011459;28;20030;-61
2021/05/29 04:00:35;;;;;;;17.38;10.50;;;12.00;99.90;;;;;;5011443;28;20083;-61
2021/05/29 04:03:01;;;;;;;16.10;10.75;;;11.90;99.90;;;;;;5026656;28;20032;-61
2021/05/29 04:05:27;;;;;;;15.52;10.23;;;12.00;99.90;;;;;;5010960;28;20047;-61
2021/05/29 04:07:53;;;;;;;14.77;10.73;;;11.90;99.90;;;;;;5011282;28;20036;-61
2021/05/29 04:10:22;;;;;;;14.75;10.52;;;11.90;99.90;;;;;;5011073;28;20026;-60
2021/05/29 04:12:48;;;;;;;12.95;10.75;;;11.80;99.90;;;;;;5011263;28;20026;-60
2021/05/29 04:15:14;;;;;;;14.88;11.32;;;11.90;99.90;;;;;;5012353;28;20026;-60
2021/05/29 04:17:41;;;;;;;13.43;10.82;;;12.00;99.90;;;;;;5030284;28;20033;-60
2021/05/29 04:20:08;;;;;;;14.52;10.65;;;11.90;99.90;;;;;;5015176;28;20029;-60
2021/05/29 04:22:34;;;;;;;19.77;11.27;;;11.90;99.90;;;;;;5015201;28;20084;-60
2021/05/29 04:24:59;;;;;;;17.35;9.70;;;11.90;99.90;;;;;;5030524;28;20033;-60
2021/05/29 04:27:25;;;;;;;19.23;11.30;;;11.90;99.90;;;;;;5015164;28;20433;-60
2021/05/29 04:29:51;;;;;;;22.80;10.77;;;12.00;99.90;;;;;;5015163;28;20052;-60
2021/05/29 04:32:17;;;;;;;16.40;10.95;;;12.00;99.90;;;;;;5014842;28;20026;-60
2021/05/29 04:34:43;;;;;;;15.60;10.82;;;12.00;99.90;;;;;;5015136;28;20056;-60
2021/05/29 04:37:10;;;;;;;13.23;10.70;;;12.00;99.90;;;;;;5014527;28;20494;-60
2021/05/29 04:39:35;;;;;;;13.65;10.77;;;12.00;99.90;;;;;;5014861;28;20018;-60
2021/05/29 04:42:01;;;;;;;13.43;10.18;;;12.00;99.90;;;;;;5014691;28;20030;-60
2021/05/29 04:44:27;;;;;;;15.80;10.45;;;12.10;99.90;;;;;;5015035;28;20029;-60
2021/05/29 04:46:53;;;;;;;13.82;10.55;;;12.20;99.90;;;;;;5014664;28;20040;-60
2021/05/29 04:49:21;;;;;;;17.20;10.75;;;12.20;99.90;;;;;;5014653;28;20521;-60
2021/05/29 04:51:47;;;;;;;14.32;11.05;;;12.20;99.90;;;;;;5014571;28;20225;-60
2021/05/29 04:54:14;;;;;;;18.00;11.13;;;12.30;99.90;;;;;;5014670;28;20033;-60
2021/05/29 04:56:39;;;;;;;17.20;10.50;;;12.30;99.90;;;;;;5014373;28;20378;-60
2021/05/29 04:59:06;;;;;;;18.23;10.80;;;12.40;99.90;;;;;;5014514;28;20030;-60
2021/05/29 05:01:32;;;;;;;17.23;9.93;;;12.40;99.90;;;;;;5029809;28;20474;-61
2021/05/29 05:03:59;;;;;;;14.70;9.80;;;12.40;99.90;;;;;;5014504;28;20026;-61
2021/05/29 05:06:25;;;;;;;13.75;10.05;;;12.50;99.90;;;;;;5013907;28;20433;-61
2021/05/29 05:08:51;;;;;;;20.92;10.45;;;12.50;99.90;;;;;;5029488;28;20121;-61
2021/05/29 05:11:17;;;;;;;15.45;10.27;;;12.50;99.90;;;;;;5014262;28;20030;-61
2021/05/29 05:13:42;;;;;;;14.30;10.45;;;12.60;99.90;;;;;;5014003;28;20030;-61
2021/05/29 05:16:08;;;;;;;16.55;10.30;;;12.60;99.90;;;;;;5014118;28;20045;-61
2021/05/29 05:18:34;;;;;;;14.02;10.20;;;12.70;99.90;;;;;;5029318;28;20053;-61
2021/05/29 05:20:59;;;;;;;14.93;11.25;;;12.80;99.90;;;;;;5014152;28;20467;-61
2021/05/29 05:23:25;;;;;;;12.32;10.80;;;12.90;99.90;;;;;;5014412;28;20382;-61
2021/05/29 05:25:52;;;;;;;12.52;10.57;;;13.10;99.90;;;;;;5014064;28;20030;-61
2021/05/29 05:28:27;;;;;;;13.95;10.15;;;13.20;99.90;;;;;;5029251;28;20025;-61
2021/05/29 05:30:58;;;;;;;14.48;10.85;;;13.10;99.90;;;;;;5013801;28;20037;-61
2021/05/29 05:33:25;;;;;;;15.57;11.35;;;13.20;99.90;;;;;;5029243;28;20018;-61
2021/05/29 05:35:51;;;;;;;14.32;11.05;;;13.30;99.90;;;;;;5013706;28;20026;-61
2021/05/29 05:38:18;;;;;;;16.05;11.30;;;13.40;99.90;;;;;;5013504;28;20133;-61
2021/05/29 05:40:44;;;;;;;16.05;11.25;;;13.50;99.90;;;;;;5029089;28;20029;-61
2021/05/29 05:43:10;;;;;;;14.98;10.95;;;13.60;99.90;;;;;;5013426;28;20034;-61
2021/05/29 05:45:35;;;;;;;12.50;10.25;;;13.60;99.90;;;;;;5013428;28;20033;-61
2021/05/29 05:48:01;;;;;;;17.83;11.32;;;13.70;99.90;;;;;;5028760;28;20043;-60
2021/05/29 05:50:27;;;;;;;12.65;10.30;;;13.70;99.90;;;;;;5028706;28;20398;-60
2021/05/29 05:52:53;;;;;;;12.90;10.18;;;13.80;99.90;;;;;;5013528;28;20025;-60
2021/05/29 05:55:19;;;;;;;12.70;10.57;;;13.70;99.90;;;;;;5013511;28;20025;-61
2021/05/29 05:57:45;;;;;;;15.57;10.80;;;13.70;99.90;;;;;;5013732;28;20040;-61
2021/05/29 06:00:13;;;;;;;12.35;9.90;;;13.80;99.90;;;;;;5013427;28;20022;-60
2021/05/29 06:02:39;;;;;;;12.40;10.30;;;14.00;99.90;;;;;;5013411;28;20034;-60
2021/05/29 06:05:06;;;;;;;11.05;9.63;;;14.20;99.90;;;;;;5013111;28;20022;-61
2021/05/29 06:07:31;;;;;;;11.05;9.45;;;14.30;99.90;;;;;;5013389;28;20030;-61
2021/05/29 06:09:57;;;;;;;11.23;9.35;;;14.20;99.90;;;;;;5013094;28;20026;-60
2021/05/29 06:12:22;;;;;;;15.68;9.70;;;14.20;99.90;;;;;;5028610;28;20030;-60
2021/05/29 06:20:17;;;;;;;13.65;9.65;;;14.50;99.90;;;;;;5013050;28;20064;-61
2021/05/29 06:22:43;;;;;;;16.42;10.10;;;14.90;99.90;;;;;;5012957;28;20585;-61
2021/05/29 06:25:14;;;;;;;13.07;9.80;;;15.10;99.90;;;;;;5012987;28;20026;-61
2021/05/29 06:27:40;;;;;;;11.55;9.70;;;15.30;99.90;;;;;;5013362;28;20030;-61
2021/05/29 06:30:08;;;;;;;15.57;9.90;;;15.30;99.90;;;;;;5012643;28;20041;-61
2021/05/29 06:32:34;;;;;;;14.75;9.95;;;15.40;99.90;;;;;;5012784;28;20030;-61
2021/05/29 06:35:00;;;;;;;10.65;9.27;;;15.50;99.90;;;;;;5012921;28;20045;-60
2021/05/29 06:37:26;;;;;;;11.20;9.10;;;15.50;99.90;;;;;;5011744;28;20044;-62
2021/05/29 06:39:52;;;;;;;13.52;9.18;;;15.40;99.90;;;;;;5012707;28;20034;-61
2021/05/29 06:42:17;;;;;;;12.25;8.50;;;15.50;99.90;;;;;;5012503;28;20029;-61
2021/05/29 06:44:43;;;;;;;11.68;8.15;;;16.70;99.90;;;;;;5012469;28;20106;-61
2021/05/29 06:47:09;;;;;;;9.90;7.93;;;18.40;99.90;;;;;;5012787;28;20022;-61
2021/05/29 06:49:36;;;;;;;16.98;8.15;;;20.00;98.30;;;;;;5012419;28;20022;-62
2021/05/29 06:52:12;;;;;;;11.10;7.45;;;21.60;92.60;;;;;;5027650;28;20034;-61
2021/05/29 07:00:00;;;;;;;8.95;6.80;;;24.60;66.30;;;;;;5012133;28;20477;-62
2021/05/29 07:02:26;;;;;;;8.68;6.13;;;25.30;60.60;;;;;;5027243;28;20021;-62
2021/05/29 07:04:52;;;;;;;11.18;6.47;;;25.30;59.30;;;;;;5012111;28;20037;-62
2021/05/29 07:07:18;;;;;;;7.47;6.13;;;25.70;56.70;;;;;;5026984;28;20530;-62
2021/05/29 07:09:44;;;;;;;7.53;5.93;;;26.60;55.30;;;;;;5027027;28;20490;-62
2021/05/29 07:12:10;;;;;;;8.68;6.45;;;26.90;53.70;;;;;;5011833;28;20026;-62
2021/05/29 07:14:36;;;;;;;8.52;6.57;;;27.50;51.10;;;;;;5012169;28;20036;-60
2021/05/29 07:17:04;;;;;;;6.85;6.00;;;27.40;50.70;;;;;;5012159;28;20097;-59
2021/05/29 07:19:30;;;;;;;7.43;6.25;;;27.30;50.80;;;;;;5026916;28;20036;-62
2021/05/29 07:21:55;;;;;;;12.02;7.35;;;26.60;51.70;;;;;;5026839;28;20034;-62
2021/05/29 07:24:22;;;;;;;12.57;6.90;;;26.20;52.90;;;;;;5011908;28;20026;-62
2021/05/29 07:26:49;;;;;;;7.82;6.63;;;25.80;54.60;;;;;;5011650;28;20034;-62
2021/05/29 07:29:15;;;;;;;7.05;5.57;;;25.70;54.30;;;;;;5026889;28;20041;-62
2021/05/29 07:31:42;;;;;;;6.68;5.63;;;25.80;52.90;;;;;;5011616;28;20104;-62
2021/05/29 07:34:08;;;;;;;6.90;5.93;;;26.20;52.20;;;;;;5011594;28;20068;-62
2021/05/29 07:36:33;;;;;;;7.03;5.80;;;26.60;51.90;;;;;;5011616;28;20054;-62
2021/05/29 07:38:59;;;;;;;8.27;5.63;;;26.90;51.20;;;;;;5011750;28;20525;-62
2021/05/29 07:41:25;;;;;;;7.28;5.95;;;26.60;51.50;;;;;;5026735;28;20471;-62
2021/05/29 07:43:50;;;;;;;7.43;5.97;;;26.70;51.30;;;;;;5011602;28;20030;-63
2021/05/29 07:46:18;;;;;;;7.00;5.38;;;26.80;51.50;;;;;;5011464;28;20522;-63
2021/05/29 07:48:44;;;;;;;6.07;5.47;;;27.30;52.30;;;;;;5010806;28;20122;-63
2021/05/29 07:51:10;;;;;;;6.35;5.50;;;27.40;49.60;;;;;;5011179;28;20058;-63
2021/05/29 07:53:38;;;;;;;12.52;6.70;;;27.10;50.70;;;;;;5011410;28;20497;-61
2021/05/29 07:56:07;;;;;;;7.53;6.45;;;27.30;49.70;;;;;;5026442;28;20036;-60
2021/05/29 07:58:34;;;;;;;9.32;6.25;;;27.20;49.70;;;;;;5011212;28;20030;-60
2021/05/29 08:01:00;;;;;;;8.23;5.35;;;26.70;51.20;;;;;;5011303;28;20018;-62
2021/05/29 08:03:27;;;;;;;7.03;5.70;;;27.10;51.40;;;;;;5011451;28;20119;-62
2021/05/29 08:05:54;;;;;;;6.88;5.53;;;27.80;49.10;;;;;;5011054;28;20069;-62
2021/05/29 08:08:22;;;;;;;6.50;4.70;;;27.80;49.00;;;;;;5011135;28;20014;-62
2021/05/29 08:10:49;;;;;;;6.20;4.68;;;27.40;48.90;;;;;;5026361;28;20128;-62
2021/05/29 08:13:20;;;;;;;5.53;5.00;;;26.10;48.80;;;;;;5026218;28;20451;-62
2021/05/29 08:15:47;;;;;;;5.95;5.00;;;25.20;52.10;;;;;;5009772;28;20022;-62
2021/05/29 08:18:15;;;;;;;5.75;5.00;;;25.60;52.40;;;;;;5011088;28;20032;-62
2021/05/29 08:20:42;;;;;;;7.38;5.10;;;26.10;51.10;;;;;;5011254;28;20497;-62
2021/05/29 08:23:07;;;;;;;6.60;4.97;;;27.10;50.10;;;;;;5011830;28;20040;-62
2021/05/29 08:25:33;;;;;;;5.25;4.75;;;27.00;49.60;;;;;;5011065;28;20034;-62
2021/05/29 08:27:59;;;;;;;5.45;4.47;;;27.00;47.90;;;;;;5026256;28;20068;-62
2021/05/29 08:30:26;;;;;;;5.10;4.30;;;26.00;48.10;;;;;;5011035;28;20562;-62
2021/05/29 08:32:53;;;;;;;5.60;4.10;;;24.60;50.40;;;;;;5026264;28;20084;-62
2021/05/29 08:35:19;;;;;;;5.15;3.90;;;24.60;50.50;;;;;;5010897;28;20059;-62
2021/05/29 08:37:45;;;;;;;4.13;3.65;;;24.40;51.80;;;;;;5010686;28;20379;-62
2021/05/29 08:40:14;;;;;;;5.43;3.75;;;25.60;51.10;;;;;;5011125;28;20030;-62
2021/05/29 08:42:42;;;;;;;6.30;3.67;;;26.30;48.80;;;;;;5011150;28;20041;-62
2021/05/29 08:45:09;;;;;;;5.88;3.60;;;26.50;47.40;;;;;;5011235;28;20057;-62
2021/05/29 08:47:34;;;;;;;3.35;3.05;;;26.60;45.90;;;;;;5010650;28;20482;-63
2021/05/29 08:50:00;;;;;;;4.20;2.90;;;27.00;48.10;;;;;;5010771;28;20037;-62
2021/05/29 08:52:26;;;;;;;5.53;3.50;;;27.80;46.00;;;;;;5010759;28;20490;-62
2021/05/29 08:54:55;;;;;;;3.65;3.35;;;27.70;45.20;;;;;;5011048;28;20440;-62
2021/05/29 08:57:22;;;;;;;3.80;3.50;;;27.60;44.50;;;;;;5010820;28;20022;-62
2021/05/29 08:59:47;;;;;;;3.53;3.22;;;27.10;45.60;;;;;;5010749;28;20018;-62
2021/05/29 09:02:13;;;;;;;4.57;3.35;;;26.60;46.60;;;;;;5014159;28;20025;-62
2021/05/29 09:05:08;;;;;;;4.43;3.20;;;26.50;47.00;;;;;;5014338;28;20041;-62
2021/05/29 09:07:34;;;;;;;4.10;3.70;;;27.00;47.40;;;;;;5014167;28;20104;-62
2021/05/29 09:10:15;;;;;;;4.75;4.00;;;26.80;47.00;;;;;;5029121;28;20137;-62
2021/05/29 09:13:04;;;;;;;5.78;3.60;;;26.90;46.10;;;;;;5012907;28;20053;-62
2021/05/29 09:15:40;;;;;;;3.28;2.97;;;26.90;45.50;;;;;;5029164;28;20371;-62
2021/05/29 09:18:06;;;;;;;5.22;3.20;;;27.10;45.80;;;;;;5014341;28;20429;-62
2021/05/29 09:20:32;;;;;;;4.85;3.63;;;27.40;44.20;;;;;;5014014;28;20076;-62
2021/05/29 09:22:59;;;;;;;5.82;3.72;;;27.10;44.80;;;;;;5014188;28;20398;-63
2021/05/29 09:25:27;;;;;;;6.95;4.40;;;27.50;45.10;;;;;;5013813;28;20363;-62
2021/05/29 09:28:04;;;;;;;6.20;4.72;;;27.10;44.30;;;;;;5014066;28;20538;-63
2021/05/29 09:30:39;;;;;;;7.88;4.20;;;27.30;44.60;;;;;;5013705;28;20030;-62
2021/05/29 09:33:23;;;;;;;5.18;4.38;;;27.20;45.90;;;;;;5013928;28;20475;-62
2021/05/29 09:35:56;;;;;;;5.18;4.60;;;27.20;44.70;;;;;;5013710;28;20390;-61
2021/05/29 09:38:25;;;;;;;5.15;4.38;;;26.80;45.40;;;;;;5012250;28;20125;-61
2021/05/29 09:40:55;;;;;;;6.28;4.60;;;25.70;47.10;;;;;;5013570;28;20037;-61
2021/05/29 09:43:21;;;;;;;7.18;4.78;;;25.20;48.60;;;;;;5029196;28;20029;-61
2021/05/29 09:46:04;;;;;;;7.03;4.80;;;25.50;48.40;;;;;;5028924;28;20460;-61
2021/05/29 09:48:29;;;;;;;;;;;26.00;47.90;;;;;;5014224;28;20497;-61
2021/05/29 09:51:13;;;;;;;6.70;4.55;;;26.20;47.60;;;;;;5013318;28;19914;-62
2021/05/29 09:53:47;;;;;;;7.22;4.68;;;27.10;46.20;;;;;;5014016;28;20478;-62
2021/05/29 09:56:34;;;;;;;4.93;4.30;;;27.20;45.90;;;;;;5013385;28;20025;-62
2021/05/29 09:59:10;;;;;;;6.45;4.10;;;27.40;45.10;;;;;;5013462;28;20022;-62
2021/05/29 10:01:37;;;;;;;6.00;4.43;;;27.40;43.70;;;;;;5028567;28;20486;-62
2021/05/29 10:04:04;;;;;;;5.78;4.47;;;27.80;44.00;;;;;;5013279;28;20041;-62
2021/05/29 10:06:29;;;;;;;6.57;4.20;;;27.40;44.10;;;;;;5027853;28;20364;-62
2021/05/29 10:08:55;;;;;;;5.63;3.50;;;27.20;44.50;;;;;;5013107;28;20033;-62
2021/05/29 10:11:21;;;;;;;4.88;4.00;;;27.30;43.70;;;;;;5012865;28;20482;-62
2021/05/29 10:13:46;;;;;;;6.25;4.50;;;27.90;44.00;;;;;;5012559;28;20461;-62
2021/05/29 10:16:14;;;;;;;5.95;4.30;;;28.50;43.90;;;;;;5012989;28;20025;-62
2021/05/29 10:18:42;;;;;;;7.65;4.22;;;28.40;44.40;;;;;;5012876;28;20056;-62
2021/05/29 10:21:09;;;;;;;5.25;4.32;;;28.50;43.50;;;;;;5028118;28;20030;-62
2021/05/29 10:23:36;;;;;;;3.83;2.90;;;27.80;44.00;;;;;;5028156;28;20112;-62
2021/05/29 10:26:03;;;;;;;5.40;2.58;;;27.20;43.30;;;;;;5012891;28;20029;-62
2021/05/29 10:28:30;;;;;;;3.85;2.40;;;27.40;42.70;;;;;;5012786;28;20038;-62
2021/05/29 10:30:56;;;;;;;3.63;2.03;;;27.90;42.80;;;;;;5012841;28;20034;-62
2021/05/29 10:33:23;;;;;;;3.65;2.20;;;28.10;40.10;;;;;;5012844;28;20390;-62
2021/05/29 10:35:49;;;;;;;3.13;2.55;;;28.10;39.30;;;;;;5027484;28;20017;-62
2021/05/29 10:38:16;;;;;;;3.05;2.40;;;28.20;39.80;;;;;;5012532;28;20553;-62
2021/05/29 10:40:48;;;;;;;4.38;2.20;;;27.80;40.90;;;;;;5011148;28;20167;-62
2021/05/29 10:43:20;;;;;;;;;;;27.60;43.60;;;;;;5028151;28;20555;-62
2021/05/29 10:45:52;;;;;;;3.65;2.70;;;27.90;42.30;;;;;;5012669;28;19906;-61
2021/05/29 10:48:18;;;;;;;4.38;3.00;;;28.40;41.50;;;;;;5012570;28;20040;-61
2021/05/29 10:50:44;;;;;;;3.10;2.50;;;28.50;40.30;;;;;;5010998;28;20142;-61
2021/05/29 10:53:10;;;;;;;3.05;2.53;;;28.00;41.60;;;;;;5012546;28;20581;-61
2021/05/29 10:55:35;;;;;;;4.20;2.20;;;28.30;39.20;;;;;;5012331;28;20033;-61
2021/05/29 10:58:06;;;;;;;2.08;1.60;;;28.80;39.60;;;;;;5027342;28;20482;-61
2021/05/29 11:00:37;;;;;;;1.48;1.25;;;28.90;38.00;;;;;;5012348;28;20482;-61
2021/05/29 11:03:24;;;;;;;1.92;1.13;;;28.90;38.00;;;;;;5010854;28;20033;-61
2021/05/29 11:05:56;;;;;;;2.65;1.33;;;29.10;36.20;;;;;;5011995;28;20034;-61
2021/05/29 11:08:47;;;;;;;2.10;1.60;;;29.60;36.40;;;;;;5027235;28;20022;-61
2021/05/29 11:11:37;;;;;;;3.30;2.67;;;28.80;38.00;;;;;;5011880;28;20386;-61
2021/05/29 11:14:17;;;;;;;4.60;2.20;;;28.20;39.60;;;;;;5010746;28;20029;-61
2021/05/29 11:19:26;;;;;;;2.22;1.83;;;27.10;41.90;;;;;;5011980;28;20125;-61
2021/05/29 11:22:12;;;;;;;3.20;2.08;;;26.50;41.70;;;;;;5011702;28;20022;-61
2021/05/29 11:24:52;;;;;;;4.30;2.15;;;26.60;41.90;;;;;;5010391;28;20057;-61
2021/05/29 11:27:22;;;;;;;4.15;1.90;;;26.10;43.30;;;;;;5011935;28;20472;-61
2021/05/29 11:30:20;;;;;;;2.75;2.55;;;25.60;43.00;;;;;;5011683;28;20026;-62
2021/05/29 11:35:48;;;;;;;3.17;2.47;;;27.30;43.00;;;;;;5011452;28;20026;-61
2021/05/29 11:38:33;;;;;;;2.80;2.20;;;28.50;39.80;;;;;;5011498;28;20045;-61
2021/05/29 11:41:10;;;;;;;2.83;2.45;;;28.10;39.60;;;;;;5011653;28;20482;-61
2021/05/29 11:43:41;;;;;;;4.05;1.70;;;28.90;37.90;;;;;;5011598;28;20440;-61
2021/05/29 11:46:13;;;;;;;3.40;1.70;;;28.30;39.40;;;;;;5011430;28;20418;-61
2021/05/29 11:48:42;;;;;;;3.45;1.67;;;28.30;39.40;;;;;;5011498;28;20025;-62
2021/05/29 11:51:11;;;;;;;2.38;1.98;;;28.90;39.50;;;;;;5011437;28;20553;-62
2021/05/29 11:53:48;;;;;;;1.77;1.33;;;29.30;37.70;;;;;;5011538;28;20041;-62
2021/05/29 11:56:16;;;;;;;2.72;1.73;;;29.80;39.40;;;;;;5011323;28;20132;-62
2021/05/29 11:58:52;;;;;;;3.97;1.80;;;30.40;38.00;;;;;;5011337;28;20075;-62
2021/05/29 12:01:24;;;;;;;3.72;1.50;;;30.10;36.60;;;;;;5009978;28;20026;-62
2021/05/29 12:03:55;;;;;;;5.13;1.55;;;28.10;37.80;;;;;;5011562;28;20041;-62
2021/05/29 12:06:51;;;;;;;3.53;1.67;;;26.90;39.60;;;;;;5010964;28;20502;-62
2021/05/29 12:09:30;;;;;;;2.35;1.75;;;26.00;41.00;;;;;;5011205;28;20393;-61
2021/05/29 12:12:05;;;;;;;5.38;1.50;;;26.30;41.10;;;;;;5011070;28;20437;-61
2021/05/29 12:14:32;;;;;;;2.63;2.00;;;27.00;40.50;;;;;;5011159;28;20025;-61
2021/05/29 12:17:06;;;;;;;4.70;1.63;;;28.10;39.50;;;;;;5010951;28;20057;-61
2021/05/29 12:19:35;;;;;;;4.50;1.25;;;28.70;38.10;;;;;;5011019;28;20049;-61
2021/05/29 12:22:03;;;;;;;5.18;1.63;;;29.30;37.40;;;;;;5011016;28;20505;-62
2021/05/29 12:24:39;;;;;;;4.50;1.60;;;28.90;38.70;;;;;;5011304;28;20029;-61
2021/05/29 12:27:06;;;;;;;3.47;1.80;;;30.70;37.20;;;;;;5011120;28;20018;-62
2021/05/29 12:29:32;;;;;;;2.92;2.03;;;30.20;36.60;;;;;;5010955;28;20541;-62
2021/05/29 12:31:59;;;;;;;4.00;1.92;;;28.70;37.90;;;;;;5010778;28;20029;-61
2021/05/29 12:34:27;;;;;;;2.28;1.80;;;27.00;40.40;;;;;;5010847;28;20018;-60
2021/05/29 12:36:54;;;;;;;2.47;2.00;;;25.70;42.40;;;;;;5013586;28;20498;-62
2021/05/29 12:39:19;;;;;;;3.25;1.70;;;24.70;44.20;;;;;;5014906;28;20374;-61
2021/05/29 12:41:45;;;;;;;4.90;2.10;;;24.70;45.50;;;;;;5014938;28;20265;-61
2021/05/29 12:44:11;;;;;;;3.72;2.10;;;26.30;42.10;;;;;;5014826;28;20022;-61
2021/05/29 12:46:39;;;;;;;3.08;1.88;;;27.60;40.80;;;;;;5014555;28;20045;-62
2021/05/29 12:49:15;;;;;;;4.55;1.92;;;28.40;39.40;;;;;;5014702;28;20030;-62
2021/05/29 12:51:41;;;;;;;3.05;1.52;;;28.70;38.10;;;;;;5014767;28;20478;-62
2021/05/29 12:54:07;;;;;;;2.10;1.70;;;28.80;38.30;;;;;;5029934;28;20026;-62
2021/05/29 12:56:33;;;;;;;3.47;1.98;;;29.20;37.00;;;;;;5014288;28;20029;-62
2021/05/29 12:59:01;;;;;;;3.67;2.08;;;28.60;37.50;;;;;;5014378;28;20022;-62